createdAt,value
2023-04-11T00:01:01.165Z,6.84
2023-04-11T00:03:29.017Z,6.15
2023-04-11T00:05:56.067Z,6.23
2023-04-11T00:08:22.565Z,5.96
2023-04-11T00:10:49.057Z,5.70
2023-04-11T00:13:15.564Z,6.19
2023-04-11T00:15:42.010Z,6.34
2023-04-11T00:18:09.172Z,6.59
2023-04-11T00:20:35.679Z,6.36
2023-04-11T00:23:02.116Z,5.98
2023-04-11T00:25:30.180Z,6.43
2023-04-11T00:27:56.913Z,5.93
2023-04-11T00:30:23.462Z,6.52
2023-04-11T00:32:50.128Z,5.98
2023-04-11T00:35:16.718Z,6.61
2023-04-11T00:37:44.580Z,6.29
2023-04-11T00:40:12.336Z,5.89
2023-04-11T00:42:39.497Z,5.91
2023-04-11T00:45:06.417Z,6.78
2023-04-11T00:47:34.396Z,6.91
2023-04-11T00:50:01.649Z,7.45
2023-04-11T00:52:28.229Z,6.63
2023-04-11T00:54:55.023Z,6.35
2023-04-11T00:57:22.809Z,7.14
2023-04-11T00:59:51.160Z,6.67
2023-04-11T01:02:18.795Z,6.85
2023-04-11T01:04:46.415Z,5.68
2023-04-11T01:07:14.370Z,5.55
2023-04-11T01:09:41.232Z,4.83
2023-04-11T01:12:08.340Z,4.97
2023-04-11T01:14:34.870Z,4.52
2023-04-11T01:17:02.414Z,3.61
2023-04-11T01:19:29.493Z,3.54
2023-04-11T01:21:58.009Z,3.68
2023-04-11T01:24:24.910Z,3.59
2023-04-11T01:26:52.190Z,3.97
2023-04-11T01:29:18.963Z,3.59
2023-04-11T01:31:45.873Z,3.99
2023-04-11T01:34:14.660Z,3.98
2023-04-11T01:36:42.490Z,4.27
2023-04-11T01:39:09.519Z,4.66
2023-04-11T01:41:37.194Z,4.78
2023-04-11T01:44:04.800Z,3.87
2023-04-11T01:46:32.058Z,3.64
2023-04-11T01:49:00.552Z,4.13
2023-04-11T01:51:27.461Z,3.98
2023-04-11T01:53:54.064Z,4.10
2023-04-11T01:56:20.886Z,4.31
2023-04-11T01:58:47.312Z,4.04
2023-04-11T02:01:16.817Z,4.70
2023-04-11T02:03:43.506Z,4.34
2023-04-11T02:06:10.133Z,4.48
2023-04-11T02:08:36.562Z,3.79
2023-04-11T02:11:03.124Z,4.28
2023-04-11T02:13:29.534Z,3.95
2023-04-11T02:15:56.084Z,4.26
2023-04-11T02:18:22.687Z,3.90
2023-04-11T02:20:50.203Z,4.01
2023-04-11T02:23:16.889Z,4.48
2023-04-11T02:25:43.758Z,4.16
2023-04-11T02:28:10.800Z,4.05
2023-04-11T02:30:37.528Z,4.21
2023-04-11T02:33:04.462Z,3.93
2023-04-11T02:35:31.204Z,3.86
2023-04-11T02:37:57.854Z,3.97
2023-04-11T02:40:24.379Z,3.92
2023-04-11T02:42:50.892Z,4.02
2023-04-11T02:45:17.412Z,4.16
2023-04-11T02:47:43.962Z,4.51
2023-04-11T02:50:10.646Z,4.08
2023-04-11T02:52:39.307Z,4.47
2023-04-11T02:55:06.182Z,4.04
2023-04-11T02:57:32.697Z,4.06
2023-04-11T02:59:59.215Z,3.88
2023-04-11T03:02:26.098Z,4.07
2023-04-11T03:04:52.898Z,4.37
2023-04-11T03:07:19.475Z,4.12
2023-04-11T03:09:45.985Z,3.57
2023-04-11T03:12:12.539Z,3.81
2023-04-11T03:14:39.031Z,3.05
2023-04-11T03:17:05.609Z,3.27
2023-04-11T03:19:32.320Z,3.19
2023-04-11T03:22:00.431Z,3.42
2023-04-11T03:24:26.959Z,3.32
2023-04-11T03:26:53.465Z,3.37
2023-04-11T03:29:19.911Z,3.27
2023-04-11T03:31:46.590Z,3.41
2023-04-11T03:34:13.099Z,3.07
2023-04-11T03:36:39.582Z,3.90
2023-04-11T03:39:06.184Z,3.12
2023-04-11T03:41:32.710Z,3.28
2023-04-11T03:43:59.215Z,3.22
2023-04-11T03:46:26.225Z,3.14
2023-04-11T03:48:52.742Z,3.54
2023-04-11T03:51:19.213Z,3.55
2023-04-11T03:53:45.758Z,3.41
2023-04-11T03:56:12.311Z,3.11
2023-04-11T03:58:40.250Z,2.94
2023-04-11T04:01:06.883Z,2.99
2023-04-11T04:03:33.769Z,3.06
2023-04-11T04:06:00.385Z,3.19
2023-04-11T04:08:26.899Z,2.87
2023-04-11T04:10:53.352Z,3.09
2023-04-11T04:13:19.799Z,2.90
2023-04-11T04:15:46.299Z,3.01
2023-04-11T04:18:12.770Z,3.16
2023-04-11T04:20:39.211Z,2.77
2023-04-11T04:23:05.799Z,3.31
2023-04-11T04:25:32.337Z,2.98
2023-04-11T04:28:00.992Z,3.49
2023-04-11T04:30:28.950Z,2.96
2023-04-11T04:32:59.001Z,3.09
2023-04-11T04:35:26.175Z,2.90
2023-04-11T04:37:54.178Z,3.22
2023-04-11T04:40:21.379Z,3.75
2023-04-11T04:42:58.273Z,3.21
2023-04-11T04:45:26.240Z,2.87
2023-04-11T04:47:52.835Z,3.21
2023-04-11T04:50:19.708Z,3.42
2023-04-11T04:52:46.593Z,3.10
2023-04-11T04:55:14.166Z,3.53
2023-04-11T04:57:40.736Z,3.38
2023-04-11T05:00:12.018Z,3.46
2023-04-11T05:02:40.583Z,5.19
2023-04-11T05:05:08.037Z,4.43
2023-04-11T05:07:34.951Z,4.03
2023-04-11T05:10:01.504Z,5.53
2023-04-11T05:12:28.157Z,6.09
2023-04-11T05:14:56.601Z,6.46
2023-04-11T05:17:25.383Z,9.75
2023-04-11T05:19:52.532Z,5.83
2023-04-11T05:22:19.099Z,4.94
2023-04-11T05:24:45.629Z,5.14
2023-04-11T05:27:13.396Z,5.32
2023-04-11T05:29:40.042Z,4.03
2023-04-11T05:32:06.463Z,4.91
2023-04-11T05:34:34.467Z,3.99
2023-04-11T05:37:01.455Z,3.88
2023-04-11T05:39:28.226Z,3.72
2023-04-11T05:41:54.775Z,3.97
2023-04-11T05:44:21.298Z,3.84
2023-04-11T05:46:48.178Z,3.99
2023-04-11T05:49:14.702Z,3.77
2023-04-11T05:51:41.202Z,4.42
2023-04-11T05:54:07.759Z,4.03
2023-04-11T05:56:35.328Z,4.20
2023-04-11T05:59:01.839Z,4.08
2023-04-11T06:01:30.331Z,15.25
2023-04-11T06:03:57.592Z,6.46
2023-04-11T06:06:24.811Z,3.89
2023-04-11T06:08:51.756Z,3.35
2023-04-11T06:11:18.497Z,3.47
2023-04-11T06:13:45.127Z,4.50
2023-04-11T06:16:11.831Z,4.30
2023-04-11T06:18:38.441Z,3.93
2023-04-11T06:21:05.760Z,4.89
2023-04-11T06:23:32.292Z,4.90
2023-04-11T06:25:58.865Z,4.49
2023-04-11T06:28:25.402Z,4.27
2023-04-11T06:30:52.273Z,4.45
2023-04-11T06:33:18.910Z,4.50
2023-04-11T06:35:45.673Z,4.31
2023-04-11T06:38:12.242Z,4.58
2023-04-11T06:40:38.764Z,4.28
2023-04-11T06:43:05.599Z,4.59
2023-04-11T06:45:32.077Z,4.65
2023-04-11T06:47:58.645Z,5.51
2023-04-11T06:50:25.316Z,4.73
2023-04-11T06:52:52.056Z,4.53
2023-04-11T06:55:18.702Z,5.10
2023-04-11T06:57:45.218Z,4.83
2023-04-11T07:00:13.121Z,4.78
2023-04-11T07:02:39.948Z,4.93
2023-04-11T07:05:09.199Z,4.81
2023-04-11T07:07:36.366Z,5.00
2023-04-11T07:10:03.042Z,4.92
2023-04-11T07:12:29.670Z,5.31
2023-04-11T07:14:56.175Z,4.95
2023-04-11T07:17:22.709Z,4.98
2023-04-11T07:19:49.353Z,4.86
2023-04-11T07:22:15.952Z,4.68
2023-04-11T07:24:43.643Z,4.84
2023-04-11T07:27:10.192Z,4.92
2023-04-11T07:29:36.617Z,5.33
2023-04-11T07:32:03.192Z,5.28
2023-04-11T07:34:29.725Z,5.40
2023-04-11T07:37:00.774Z,5.03
2023-04-11T07:39:27.612Z,5.55
2023-04-11T07:41:54.364Z,7.05
2023-04-11T07:44:20.930Z,4.42
2023-04-11T07:46:47.505Z,4.21
2023-04-11T07:49:13.933Z,4.64
2023-04-11T07:51:40.853Z,4.19
2023-04-11T07:54:08.717Z,5.80
2023-04-11T07:56:35.420Z,6.30
2023-04-11T07:59:02.204Z,6.07
2023-04-11T08:01:29.048Z,4.66
2023-04-11T08:03:56.731Z,5.23
2023-04-11T08:06:23.981Z,7.21
2023-04-11T08:08:51.253Z,6.40
2023-04-11T08:11:17.992Z,7.63
2023-04-11T08:13:44.518Z,5.35
2023-04-11T08:16:11.913Z,7.27
2023-04-11T08:18:42.113Z,5.06
2023-04-11T08:21:15.274Z,5.09
2023-04-11T08:23:42.718Z,6.70
2023-04-11T08:26:11.743Z,6.05
2023-04-11T08:28:39.511Z,6.46
2023-04-11T08:31:07.526Z,5.73
2023-04-11T08:33:34.213Z,10.35
2023-04-11T08:36:00.901Z,5.89
2023-04-11T08:38:27.386Z,6.46
2023-04-11T08:40:54.935Z,7.32
2023-04-11T08:43:21.931Z,6.95
2023-04-11T08:45:48.596Z,6.75
2023-04-11T08:48:15.362Z,3.22
2023-04-11T08:50:44.924Z,3.69
2023-04-11T08:53:11.682Z,4.64
2023-04-11T08:55:45.531Z,4.09
2023-04-11T08:58:12.340Z,3.56
2023-04-11T09:00:39.159Z,3.77
2023-04-11T09:03:06.991Z,3.66
2023-04-11T09:05:41.277Z,4.27
2023-04-11T09:08:09.314Z,4.71
2023-04-11T09:10:36.733Z,3.98
2023-04-11T09:13:21.343Z,3.82
2023-04-11T09:15:48.487Z,3.64
2023-04-11T09:18:31.927Z,3.82
2023-04-11T09:21:06.113Z,3.39
2023-04-11T09:23:32.781Z,3.75
2023-04-11T09:25:59.430Z,3.07
2023-04-11T09:28:26.054Z,3.14
2023-04-11T09:30:53.614Z,3.12
2023-04-11T09:33:24.544Z,3.47
2023-04-11T09:35:55.467Z,2.99
2023-04-11T09:38:29.983Z,3.44
2023-04-11T09:40:57.068Z,3.11
2023-04-11T09:43:23.767Z,2.87
2023-04-11T09:46:07.806Z,3.43
2023-04-11T09:48:45.976Z,3.31
2023-04-11T09:51:18.063Z,3.57
2023-04-11T09:53:58.088Z,3.37
2023-04-11T09:56:26.645Z,3.38
2023-04-11T09:58:54.706Z,3.14
2023-04-11T10:01:24.470Z,3.06
2023-04-11T10:03:51.506Z,3.58
2023-04-11T10:06:41.669Z,3.11
2023-04-11T10:09:13.112Z,3.25
2023-04-11T10:11:43.959Z,3.12
2023-04-11T10:14:30.724Z,3.00
2023-04-11T10:17:21.266Z,3.48
2023-04-11T10:19:51.485Z,3.37
2023-04-11T10:22:36.647Z,3.65
2023-04-11T10:25:19.523Z,3.51
2023-04-11T10:27:53.718Z,3.46
2023-04-11T10:30:38.839Z,3.28
2023-04-11T10:33:13.170Z,3.70
2023-04-11T10:36:12.708Z,3.33
2023-04-11T10:38:48.397Z,3.41
2023-04-11T10:41:15.558Z,3.19
2023-04-11T10:43:42.218Z,2.74
2023-04-11T10:46:19.654Z,3.24
2023-04-11T10:49:00.075Z,3.31
2023-04-11T10:51:28.140Z,2.98
2023-04-11T10:53:59.386Z,3.11
2023-04-11T10:56:48.879Z,3.40
2023-04-11T10:59:34.465Z,3.62
2023-04-11T11:02:02.724Z,3.33
2023-04-11T11:04:33.421Z,2.96
2023-04-11T11:07:01.466Z,3.08
2023-04-11T11:09:28.914Z,2.96
2023-04-11T11:12:08.585Z,3.11
2023-04-11T11:14:35.488Z,2.94
2023-04-11T11:17:03.079Z,3.41
2023-04-11T11:19:31.050Z,2.92
2023-04-11T11:22:03.388Z,3.46
2023-04-11T11:24:30.571Z,3.06
2023-04-11T11:26:57.829Z,3.25
2023-04-11T11:29:32.273Z,3.72
2023-04-11T11:31:59.911Z,3.47
2023-04-11T11:34:36.101Z,3.34
2023-04-11T11:37:06.517Z,3.34
2023-04-11T11:39:34.424Z,3.11
2023-04-11T11:42:01.630Z,2.93
2023-04-11T11:44:29.910Z,3.25
2023-04-11T11:47:02.516Z,2.97
2023-04-11T11:49:42.810Z,3.06
2023-04-11T11:52:09.317Z,3.24
2023-04-11T11:54:46.469Z,3.37
2023-04-11T11:57:20.257Z,2.77
2023-04-11T11:59:53.175Z,3.50
2023-04-11T12:02:21.027Z,3.19
2023-04-11T12:04:47.912Z,2.87
2023-04-11T12:07:14.770Z,2.95
2023-04-11T12:09:41.542Z,2.89
2023-04-11T12:12:11.496Z,3.09
2023-04-11T12:14:37.959Z,3.22
2023-04-11T12:17:04.498Z,3.40
2023-04-11T12:19:31.150Z,3.58
2023-04-11T12:21:57.690Z,3.62
2023-04-11T12:24:24.292Z,3.69
2023-04-11T12:27:05.644Z,3.68
2023-04-11T12:29:33.170Z,4.10
2023-04-11T12:31:59.685Z,4.15
2023-04-11T12:34:26.285Z,3.93
2023-04-11T12:36:53.280Z,3.63
2023-04-11T12:39:19.830Z,3.50
2023-04-11T12:41:46.352Z,3.49
2023-04-11T12:44:12.958Z,3.15
2023-04-11T12:46:39.554Z,3.47
2023-04-11T12:49:06.133Z,3.50
2023-04-11T12:51:32.587Z,3.52
2023-04-11T12:53:59.160Z,3.18
2023-04-11T12:56:26.946Z,3.77
2023-04-11T12:58:53.517Z,3.25
2023-04-11T13:01:20.096Z,3.39
2023-04-11T13:03:46.976Z,3.27
2023-04-11T13:06:13.734Z,3.16
2023-04-11T13:08:40.374Z,2.92
2023-04-11T13:11:07.212Z,3.14
2023-04-11T13:13:33.679Z,3.75
2023-04-11T13:16:00.365Z,3.73
2023-04-11T13:18:26.961Z,3.88
2023-04-11T13:20:53.422Z,3.90
2023-04-11T13:23:19.944Z,3.82
2023-04-11T13:25:46.427Z,4.10
2023-04-11T13:28:12.871Z,3.66
2023-04-11T13:30:39.656Z,3.18
2023-04-11T13:33:06.135Z,3.52
2023-04-11T13:35:32.623Z,3.79
2023-04-11T13:37:59.311Z,3.93
2023-04-11T13:40:25.851Z,3.52
2023-04-11T13:42:54.480Z,2.86
2023-04-11T13:45:21.057Z,3.37
2023-04-11T13:47:47.658Z,3.22
2023-04-11T13:50:14.132Z,3.64
2023-04-11T13:52:40.767Z,3.32
2023-04-11T13:55:07.697Z,3.29
2023-04-11T13:57:34.260Z,3.52
2023-04-11T14:00:00.845Z,3.73
2023-04-11T14:02:27.581Z,3.19
2023-04-11T14:04:54.168Z,3.35
2023-04-11T14:07:20.785Z,3.20
2023-04-11T14:09:47.555Z,3.43
2023-04-11T14:12:14.235Z,3.02
2023-04-11T14:14:41.045Z,3.37
2023-04-11T14:17:07.601Z,3.64
2023-04-11T14:19:34.277Z,3.31
2023-04-11T14:22:01.184Z,3.24
2023-04-11T14:24:28.378Z,3.16
2023-04-11T14:26:54.902Z,2.71
2023-04-11T14:29:22.916Z,2.39
2023-04-11T14:31:50.065Z,2.35
2023-04-11T14:34:18.455Z,2.35
2023-04-11T14:36:45.196Z,2.69
2023-04-11T14:39:11.721Z,2.30
2023-04-11T14:41:38.214Z,2.98
2023-04-11T14:44:04.752Z,2.69
2023-04-11T14:46:31.334Z,2.64
2023-04-11T14:48:57.933Z,2.47
2023-04-11T14:51:27.191Z,2.44
2023-04-11T14:53:55.260Z,2.60
2023-04-11T14:56:22.940Z,2.57
2023-04-11T14:58:49.981Z,2.79
2023-04-11T15:01:17.148Z,2.56
2023-04-11T15:03:44.233Z,2.87
2023-04-11T15:06:12.212Z,2.68
2023-04-11T15:08:39.027Z,2.68
2023-04-11T15:11:06.107Z,2.43
2023-04-11T15:13:32.927Z,2.69
2023-04-11T15:16:00.878Z,3.07
2023-04-11T15:18:28.828Z,2.91
2023-04-11T15:20:56.521Z,2.40
2023-04-11T15:23:23.649Z,2.52
2023-04-11T15:25:54.503Z,2.26
2023-04-11T15:28:21.979Z,2.94
2023-04-11T15:30:49.820Z,2.58
2023-04-11T15:33:17.172Z,2.57
2023-04-11T15:35:44.643Z,2.75
2023-04-11T15:38:12.229Z,2.15
2023-04-11T15:40:39.234Z,2.55
2023-04-11T15:43:06.768Z,2.61
2023-04-11T15:45:37.259Z,2.02
2023-04-11T15:48:04.087Z,2.62
2023-04-11T15:50:31.542Z,2.78
2023-04-11T15:52:58.569Z,2.65
2023-04-11T15:55:25.061Z,2.21
2023-04-11T15:57:52.162Z,2.49
2023-04-11T16:00:20.006Z,2.42
2023-04-11T16:02:47.311Z,2.40
2023-04-11T16:05:14.359Z,2.19
2023-04-11T16:07:42.356Z,2.06
2023-04-11T16:10:09.522Z,2.28
2023-04-11T16:12:37.114Z,2.05
2023-04-11T16:15:04.344Z,2.27
2023-04-11T16:17:31.071Z,2.19
2023-04-11T16:19:57.577Z,2.02
2023-04-11T16:22:24.229Z,1.90
2023-04-11T16:24:51.558Z,1.99
2023-04-11T16:27:21.622Z,1.69
2023-04-11T16:29:48.125Z,2.08
2023-04-11T16:32:14.612Z,2.01
2023-04-11T16:34:41.356Z,2.02
2023-04-11T16:37:07.941Z,2.21
2023-04-11T16:39:34.382Z,1.99
2023-04-11T16:42:01.840Z,2.08
2023-04-11T16:44:28.514Z,1.96
2023-04-11T16:46:54.939Z,1.94
2023-04-11T16:49:21.531Z,1.83
2023-04-11T16:51:48.000Z,1.92
2023-04-11T16:54:15.037Z,1.79
2023-04-11T16:56:41.655Z,1.88
2023-04-11T16:59:09.437Z,2.52
2023-04-11T17:01:36.114Z,2.06
2023-04-11T17:04:02.795Z,2.20
2023-04-11T17:06:29.469Z,2.38
2023-04-11T17:08:57.527Z,2.52
2023-04-11T17:11:24.708Z,2.25
2023-04-11T17:13:51.602Z,2.30
2023-04-11T17:16:18.294Z,2.29
2023-04-11T17:18:44.904Z,2.70
2023-04-11T17:21:11.579Z,2.45
2023-04-11T17:23:43.104Z,2.47
2023-04-11T17:26:11.049Z,2.62
2023-04-11T17:28:38.188Z,2.73
2023-04-11T17:31:15.207Z,2.75
2023-04-11T17:33:42.237Z,2.97
2023-04-11T17:36:09.824Z,3.08
2023-04-11T17:38:37.776Z,3.16
2023-04-11T17:41:13.839Z,3.36
2023-04-11T17:43:42.065Z,3.03
2023-04-11T17:46:09.051Z,2.96
2023-04-11T17:48:36.176Z,2.97
2023-04-11T17:51:04.130Z,2.60
2023-04-11T17:53:30.938Z,2.61
2023-04-11T17:55:57.625Z,2.57
2023-04-11T17:58:24.134Z,2.78
2023-04-11T18:00:56.227Z,2.78
2023-04-11T18:03:25.135Z,2.79
2023-04-11T18:05:52.477Z,3.40
2023-04-11T18:08:19.262Z,3.47
2023-04-11T18:10:45.933Z,3.43
2023-04-11T18:13:12.488Z,3.30
2023-04-11T18:15:39.018Z,3.33
2023-04-11T18:18:09.602Z,3.42
2023-04-11T18:20:36.867Z,3.06
2023-04-11T18:23:03.428Z,3.32
2023-04-11T18:25:29.949Z,3.91
2023-04-11T18:27:56.681Z,3.59
2023-04-11T18:30:23.320Z,4.14
2023-04-11T18:32:52.286Z,3.65
2023-04-11T18:35:18.996Z,3.54
2023-04-11T18:37:45.813Z,4.01
2023-04-11T18:40:14.022Z,4.21
2023-04-11T18:42:42.111Z,3.81
2023-04-11T18:45:11.399Z,4.00
2023-04-11T18:47:39.004Z,3.95
2023-04-11T18:50:05.979Z,3.61
2023-04-11T18:52:33.066Z,4.14
2023-04-11T18:54:59.946Z,4.53
2023-04-11T18:57:29.799Z,3.88
2023-04-11T19:00:00.315Z,3.84
2023-04-11T19:02:28.024Z,4.21
2023-04-11T19:04:55.480Z,3.59
2023-04-11T19:07:23.049Z,3.37
2023-04-11T19:09:49.605Z,3.49
2023-04-11T19:12:17.104Z,3.56
2023-04-11T19:14:43.997Z,3.93
2023-04-11T19:17:12.917Z,3.81
2023-04-11T19:19:39.542Z,3.70
2023-04-11T19:22:06.143Z,3.78
2023-04-11T19:24:32.881Z,3.98
2023-04-11T19:26:59.625Z,3.82
2023-04-11T19:29:27.020Z,4.13
2023-04-11T19:31:53.542Z,3.72
2023-04-11T19:34:20.116Z,3.84
2023-04-11T19:36:46.632Z,3.72
2023-04-11T19:39:13.126Z,4.40
2023-04-11T19:41:44.073Z,4.93
2023-04-11T19:44:10.818Z,3.67
2023-04-11T19:46:37.345Z,3.61
2023-04-11T19:49:04.197Z,3.66
2023-04-11T19:51:30.705Z,3.52
2023-04-11T19:53:57.378Z,3.67
2023-04-11T19:56:24.005Z,3.76
2023-04-11T19:58:50.625Z,3.51
2023-04-11T20:01:18.675Z,3.74
2023-04-11T20:03:45.409Z,3.53
2023-04-11T20:06:12.514Z,3.88
2023-04-11T20:08:39.774Z,3.66
2023-04-11T20:11:06.443Z,3.81
2023-04-11T20:13:33.791Z,3.76
2023-04-11T20:16:01.160Z,3.69
2023-04-11T20:18:28.860Z,3.94
2023-04-11T20:20:55.339Z,3.82
2023-04-11T20:23:21.869Z,3.35
2023-04-11T20:25:48.582Z,4.18
2023-04-11T20:28:15.073Z,3.85
2023-04-11T20:30:41.813Z,4.12
2023-04-11T20:33:08.311Z,4.14
2023-04-11T20:35:34.996Z,3.57
2023-04-11T20:38:01.725Z,3.83
2023-04-11T20:40:28.472Z,3.69
2023-04-11T20:42:56.267Z,3.77
2023-04-11T20:45:25.584Z,3.63
2023-04-11T20:47:52.749Z,3.75
2023-04-11T20:50:19.985Z,4.23
2023-04-11T20:52:47.797Z,3.97
2023-04-11T20:55:14.559Z,3.97
2023-04-11T20:57:41.123Z,4.16
2023-04-11T21:00:14.543Z,4.30
2023-04-11T21:02:44.396Z,3.50
2023-04-11T21:05:12.145Z,3.90
2023-04-11T21:07:39.706Z,3.84
2023-04-11T21:10:07.477Z,3.89
2023-04-11T21:12:34.342Z,3.86
2023-04-11T21:15:01.886Z,3.76
2023-04-11T21:17:28.527Z,4.11
2023-04-11T21:19:55.037Z,3.54
2023-04-11T21:22:21.573Z,3.71
2023-04-11T21:24:48.317Z,3.66
2023-04-11T21:27:14.853Z,3.56
2023-04-11T21:29:41.388Z,3.69
2023-04-11T21:32:07.922Z,3.91
2023-04-11T21:34:34.452Z,3.59
2023-04-11T21:37:01.096Z,3.75
2023-04-11T21:39:27.624Z,3.78
2023-04-11T21:41:54.065Z,3.75
2023-04-11T21:44:20.629Z,3.76
2023-04-11T21:46:47.185Z,3.66
2023-04-11T21:49:13.885Z,4.03
2023-04-11T21:51:40.476Z,3.74
2023-04-11T21:54:07.047Z,3.25
2023-04-11T21:56:33.605Z,3.29
2023-04-11T21:59:00.209Z,3.27
2023-04-11T22:01:27.210Z,3.28
2023-04-11T22:03:53.835Z,3.24
2023-04-11T22:06:22.600Z,3.46
2023-04-11T22:08:50.427Z,3.42
2023-04-11T22:11:17.627Z,3.46
2023-04-11T22:13:46.482Z,3.55
2023-04-11T22:16:14.059Z,3.49
2023-04-11T22:18:47.041Z,3.36
2023-04-11T22:21:20.329Z,3.47
2023-04-11T22:23:54.832Z,4.06
2023-04-11T22:26:29.478Z,3.75
2023-04-11T22:29:01.399Z,4.50
2023-04-11T22:31:35.055Z,4.40
2023-04-11T22:34:04.662Z,4.41
2023-04-11T22:36:35.654Z,4.51
2023-04-11T22:39:06.965Z,4.82
2023-04-11T22:41:35.375Z,5.05
2023-04-11T22:44:02.554Z,4.81
2023-04-11T22:46:30.596Z,5.26
2023-04-11T22:48:59.762Z,5.25
2023-04-11T22:51:30.216Z,5.56
2023-04-11T22:53:57.410Z,5.46
2023-04-11T22:56:24.026Z,5.58
2023-04-11T22:58:50.572Z,5.62
2023-04-11T23:01:17.587Z,5.85
2023-04-11T23:03:44.187Z,6.05
2023-04-11T23:06:11.029Z,6.06
2023-04-11T23:08:37.743Z,5.85
2023-04-11T23:11:05.104Z,6.35
2023-04-11T23:13:31.643Z,7.04
2023-04-11T23:15:59.919Z,7.02
2023-04-11T23:18:26.364Z,6.44
2023-04-11T23:20:53.084Z,6.54
2023-04-11T23:23:20.018Z,6.69
2023-04-11T23:25:46.604Z,6.04
2023-04-11T23:28:13.200Z,5.68
2023-04-11T23:30:40.425Z,4.80
2023-04-11T23:33:08.754Z,4.73
2023-04-11T23:35:35.570Z,4.15
2023-04-11T23:38:02.859Z,3.93
2023-04-11T23:40:30.475Z,3.83
2023-04-11T23:43:00.139Z,3.77
2023-04-11T23:45:26.814Z,3.47
2023-04-11T23:47:53.397Z,3.56
2023-04-11T23:50:20.010Z,3.52
2023-04-11T23:52:47.571Z,3.44
2023-04-11T23:55:14.348Z,3.50
2023-04-11T23:57:41.090Z,3.74
